createdAt,value
2018-07-09T00:01:18.018Z,65.08
2018-07-09T00:03:47.345Z,66.01
2018-07-09T00:06:16.668Z,66.23
2018-07-09T00:08:45.933Z,65.99
2018-07-09T00:11:15.231Z,65.73
2018-07-09T00:13:44.550Z,66.12
2018-07-09T00:16:13.842Z,66.00
2018-07-09T00:18:43.120Z,66.01
2018-07-09T00:21:12.666Z,66.47
2018-07-09T00:23:43.669Z,66.59
2018-07-09T00:26:12.962Z,66.55
2018-07-09T00:28:42.368Z,66.07
2018-07-09T00:31:11.627Z,67.17
2018-07-09T00:33:40.900Z,66.90
2018-07-09T00:36:09.965Z,67.07
2018-07-09T00:38:39.282Z,67.17
2018-07-09T00:41:08.715Z,66.98
2018-07-09T00:43:38.298Z,67.71
2018-07-09T00:46:07.759Z,67.14
2018-07-09T00:48:37.058Z,67.26
2018-07-09T00:51:06.442Z,67.29
2018-07-09T00:53:35.974Z,67.02
2018-07-09T00:56:05.550Z,66.99
2018-07-09T00:58:34.913Z,67.06
2018-07-09T01:01:04.714Z,67.51
2018-07-09T01:03:34.321Z,68.19
2018-07-09T01:06:04.376Z,67.62
2018-07-09T01:08:33.942Z,67.55
2018-07-09T01:11:20.345Z,67.80
2018-07-09T01:13:49.956Z,67.45
2018-07-09T01:16:19.702Z,67.95
2018-07-09T01:18:49.356Z,67.51
2018-07-09T01:21:18.847Z,68.51
2018-07-09T01:23:48.466Z,69.17
2018-07-09T01:26:18.305Z,69.14
2018-07-09T01:28:47.909Z,68.86
2018-07-09T01:31:17.462Z,68.18
2018-07-09T01:33:46.995Z,68.94
2018-07-09T01:36:16.723Z,69.29
2018-07-09T01:38:46.590Z,68.69
2018-07-09T01:41:16.226Z,69.50
2018-07-09T01:43:46.368Z,69.80
2018-07-09T01:46:16.091Z,68.89
2018-07-09T01:48:45.865Z,69.93
2018-07-09T01:51:15.640Z,69.95
2018-07-09T01:53:45.227Z,69.38
2018-07-09T01:56:14.646Z,69.24
2018-07-09T01:58:44.432Z,68.98
2018-07-09T02:01:13.842Z,69.03
2018-07-09T02:03:43.428Z,69.43
2018-07-09T02:06:12.967Z,70.75
2018-07-09T02:08:42.686Z,69.32
2018-07-09T02:11:12.407Z,70.09
2018-07-09T02:13:41.755Z,70.48
2018-07-09T02:16:11.226Z,70.31
2018-07-09T02:18:40.667Z,70.52
2018-07-09T02:21:10.201Z,70.86
2018-07-09T02:23:39.850Z,71.01
2018-07-09T02:26:09.755Z,71.05
2018-07-09T02:28:38.924Z,70.33
2018-07-09T02:31:08.456Z,71.23
2018-07-09T02:33:38.801Z,71.04
2018-07-09T02:36:08.418Z,71.85
2018-07-09T02:38:38.056Z,71.00
2018-07-09T02:41:07.786Z,70.04
2018-07-09T02:43:37.216Z,69.80
2018-07-09T02:46:06.864Z,70.55
2018-07-09T02:48:36.363Z,70.51
2018-07-09T02:51:05.965Z,70.97
2018-07-09T02:53:35.514Z,70.74
2018-07-09T02:56:05.072Z,70.93
2018-07-09T02:58:34.784Z,70.31
2018-07-09T03:01:04.464Z,70.52
2018-07-09T03:03:34.472Z,70.14
2018-07-09T03:06:03.960Z,70.21
2018-07-09T03:08:33.671Z,70.51
2018-07-09T03:11:03.303Z,70.34
2018-07-09T03:13:33.119Z,70.37
2018-07-09T03:16:03.115Z,69.88
2018-07-09T03:18:32.730Z,71.11
2018-07-09T03:21:02.140Z,70.51
2018-07-09T03:23:31.846Z,70.63
2018-07-09T03:26:01.293Z,70.17
2018-07-09T03:28:30.985Z,70.82
2018-07-09T03:31:00.559Z,71.33
2018-07-09T03:33:30.086Z,70.45
2018-07-09T03:35:59.663Z,70.38
2018-07-09T03:38:29.401Z,70.61
2018-07-09T03:40:59.044Z,71.00
2018-07-09T03:43:28.718Z,70.84
2018-07-09T03:45:58.170Z,70.64
2018-07-09T03:48:27.809Z,70.30
2018-07-09T03:50:57.160Z,69.83
2018-07-09T03:53:26.284Z,70.41
2018-07-09T03:55:55.972Z,69.88
2018-07-09T03:58:25.447Z,68.50
2018-07-09T04:00:55.222Z,69.20
2018-07-09T04:03:24.809Z,68.84
2018-07-09T04:05:54.343Z,69.82
2018-07-09T04:08:24.202Z,69.42
2018-07-09T04:10:54.096Z,68.92
2018-07-09T04:13:23.910Z,69.70
2018-07-09T04:15:53.451Z,69.33
2018-07-09T04:18:25.048Z,69.06
2018-07-09T04:20:56.597Z,68.76
2018-07-09T04:23:26.544Z,68.89
2018-07-09T04:25:55.734Z,69.17
2018-07-09T04:28:25.226Z,68.70
2018-07-09T04:30:54.552Z,68.75
2018-07-09T04:33:23.895Z,68.94
2018-07-09T04:35:53.178Z,69.20
2018-07-09T04:38:22.473Z,69.23
2018-07-09T04:40:51.794Z,69.16
2018-07-09T04:43:21.256Z,68.33
2018-07-09T04:45:50.570Z,67.71
2018-07-09T04:48:19.869Z,68.59
2018-07-09T04:50:49.199Z,67.81
2018-07-09T04:53:18.574Z,68.33
2018-07-09T04:55:47.849Z,68.30
2018-07-09T04:58:17.258Z,68.24
2018-07-09T05:00:46.763Z,67.76
2018-07-09T05:03:16.293Z,67.21
2018-07-09T05:05:45.606Z,66.40
2018-07-09T05:08:15.320Z,65.33
2018-07-09T05:10:44.628Z,65.08
2018-07-09T05:13:13.973Z,65.06
2018-07-09T05:15:43.319Z,65.82
2018-07-09T05:18:12.624Z,65.66
2018-07-09T05:20:42.108Z,66.28
2018-07-09T05:23:11.469Z,65.15
2018-07-09T05:25:40.768Z,64.92
2018-07-09T05:28:10.125Z,64.38
2018-07-09T05:30:39.686Z,65.17
2018-07-09T05:33:10.078Z,64.36
2018-07-09T05:35:39.405Z,64.85
2018-07-09T05:38:08.742Z,64.35
2018-07-09T05:40:38.179Z,64.58
2018-07-09T05:43:07.256Z,64.70
2018-07-09T05:45:36.765Z,64.59
2018-07-09T05:48:07.678Z,65.39
2018-07-09T05:50:37.104Z,65.07
2018-07-09T05:53:06.636Z,65.13
2018-07-09T05:55:36.104Z,64.80
2018-07-09T05:58:05.415Z,64.22
2018-07-09T06:00:34.831Z,64.40
2018-07-09T06:03:04.370Z,64.08
2018-07-09T06:05:33.802Z,63.29
2018-07-09T06:08:03.085Z,62.76
2018-07-09T06:10:32.399Z,62.79
2018-07-09T06:13:01.851Z,61.59
2018-07-09T06:15:31.362Z,60.70
2018-07-09T06:18:00.786Z,60.98
2018-07-09T06:20:30.176Z,60.20
2018-07-09T06:22:59.502Z,60.68
2018-07-09T06:25:28.860Z,60.21
2018-07-09T06:27:59.345Z,60.73
2018-07-09T06:30:28.670Z,61.09
2018-07-09T06:32:58.020Z,61.02
2018-07-09T06:35:27.039Z,60.38
2018-07-09T06:37:56.420Z,59.99
2018-07-09T06:40:25.778Z,59.29
2018-07-09T06:42:55.113Z,59.52
2018-07-09T06:45:24.411Z,59.15
2018-07-09T06:47:53.727Z,58.72
2018-07-09T06:50:23.097Z,58.83
2018-07-09T06:52:52.663Z,58.43
2018-07-09T06:55:21.983Z,59.07
2018-07-09T06:57:51.330Z,58.30
2018-07-09T07:00:21.240Z,59.64
2018-07-09T07:02:50.566Z,59.50
2018-07-09T07:05:19.935Z,58.47
2018-07-09T07:07:49.375Z,59.58
2018-07-09T07:10:18.706Z,61.28
2018-07-09T07:12:47.998Z,60.64
2018-07-09T07:15:17.360Z,60.96
2018-07-09T07:17:46.640Z,59.43
2018-07-09T07:20:15.979Z,60.02
2018-07-09T07:22:45.963Z,60.15
2018-07-09T07:25:15.442Z,59.85
2018-07-09T07:27:44.773Z,60.05
2018-07-09T07:30:14.120Z,58.86
2018-07-09T07:32:43.399Z,59.88
2018-07-09T07:35:12.667Z,59.91
2018-07-09T07:37:42.005Z,59.30
2018-07-09T07:40:11.381Z,59.02
2018-07-09T07:42:40.783Z,58.81
2018-07-09T07:45:10.883Z,57.61
2018-07-09T07:47:40.183Z,56.37
2018-07-09T07:50:09.545Z,55.29
2018-07-09T07:52:38.831Z,55.72
2018-07-09T07:55:08.147Z,54.51
2018-07-09T07:57:37.459Z,55.97
2018-07-09T08:00:07.672Z,57.92
2018-07-09T08:02:37.077Z,58.33
2018-07-09T08:05:06.627Z,58.01
2018-07-09T08:07:36.785Z,58.25
2018-07-09T08:10:07.330Z,57.23
2018-07-09T08:15:06.273Z,57.33
2018-07-09T08:17:35.596Z,56.97
2018-07-09T08:20:05.508Z,56.32
2018-07-09T08:22:34.819Z,56.76
2018-07-09T08:25:04.241Z,58.12
2018-07-09T08:27:33.192Z,57.88
2018-07-09T08:30:02.783Z,57.76
2018-07-09T08:32:32.084Z,57.50
2018-07-09T08:35:06.790Z,58.21
2018-07-09T08:37:36.133Z,58.06
2018-07-09T08:40:05.646Z,57.98
2018-07-09T08:42:35.024Z,58.74
2018-07-09T08:45:04.624Z,58.37
2018-07-09T08:47:34.347Z,57.03
2018-07-09T08:50:04.393Z,55.98
2018-07-09T08:52:33.782Z,55.13
2018-07-09T08:55:03.051Z,53.50
2018-07-09T08:57:32.402Z,51.31
2018-07-09T09:00:01.722Z,49.92
2018-07-09T09:02:31.321Z,49.45
2018-07-09T09:05:00.696Z,49.47
2018-07-09T09:07:30.193Z,49.28
2018-07-09T09:09:59.507Z,49.51
2018-07-09T09:12:29.115Z,49.73
2018-07-09T09:14:58.494Z,48.40
2018-07-09T09:17:27.811Z,49.82
2018-07-09T09:19:57.376Z,48.75
2018-07-09T09:22:26.688Z,48.61
2018-07-09T09:24:56.012Z,46.99
2018-07-09T09:27:25.356Z,47.02
2018-07-09T09:29:54.710Z,45.32
2018-07-09T09:32:23.983Z,44.87
2018-07-09T09:34:53.665Z,44.12
2018-07-09T09:37:23.024Z,44.70
2018-07-09T09:39:52.758Z,44.62
2018-07-09T09:42:22.058Z,44.72
2018-07-09T09:44:51.358Z,43.69
2018-07-09T09:47:20.676Z,42.32
2018-07-09T09:49:49.974Z,40.17
2018-07-09T09:52:19.364Z,38.65
2018-07-09T09:54:48.639Z,38.78
2018-07-09T09:57:18.772Z,38.23
2018-07-09T09:59:48.116Z,37.11
2018-07-09T10:02:17.429Z,38.36
2018-07-09T10:04:47.139Z,37.76
2018-07-09T10:07:16.505Z,38.21
2018-07-09T10:09:45.844Z,40.54
2018-07-09T10:12:15.306Z,39.87
2018-07-09T10:14:44.661Z,39.52
2018-07-09T10:17:14.041Z,37.22
2018-07-09T10:19:43.787Z,36.75
2018-07-09T10:22:13.092Z,36.42
2018-07-09T10:24:42.374Z,37.26
2018-07-09T10:27:11.734Z,35.94
2018-07-09T10:29:41.017Z,35.54
2018-07-09T10:32:10.296Z,35.14
2018-07-09T10:34:39.619Z,34.72
2018-07-09T10:37:08.945Z,33.58
2018-07-09T10:39:38.365Z,35.81
2018-07-09T10:42:08.700Z,37.46
2018-07-09T10:44:38.127Z,38.53
2018-07-09T10:47:07.611Z,40.06
2018-07-09T10:49:37.060Z,39.14
2018-07-09T10:52:06.600Z,38.18
2018-07-09T10:54:36.123Z,38.17
2018-07-09T10:57:05.545Z,37.21
2018-07-09T10:59:34.907Z,36.63
2018-07-09T11:02:04.285Z,37.00
2018-07-09T11:04:34.020Z,36.70
2018-07-09T11:07:03.791Z,37.63
2018-07-09T11:09:33.276Z,39.43
2018-07-09T11:12:02.628Z,38.46
2018-07-09T11:14:31.955Z,38.55
2018-07-09T11:17:01.258Z,37.03
2018-07-09T11:19:30.584Z,36.76
2018-07-09T11:21:59.944Z,35.53
2018-07-09T11:24:29.281Z,34.99
2018-07-09T11:26:58.658Z,34.92
2018-07-09T11:29:27.948Z,35.46
2018-07-09T11:31:57.251Z,33.99
2018-07-09T11:34:26.656Z,36.25
2018-07-09T11:36:56.188Z,36.45
2018-07-09T11:39:26.693Z,36.10
2018-07-09T11:41:56.176Z,36.23
2018-07-09T11:44:25.580Z,35.44
2018-07-09T11:46:54.978Z,35.00
2018-07-09T11:49:24.414Z,34.31
2018-07-09T11:51:53.705Z,34.04
2018-07-09T11:54:23.077Z,34.79
2018-07-09T11:56:52.390Z,34.83
2018-07-09T11:59:21.717Z,35.14
2018-07-09T12:01:51.028Z,35.98
2018-07-09T12:04:20.342Z,34.99
2018-07-09T12:06:49.893Z,34.58
2018-07-09T12:09:19.367Z,34.88
2018-07-09T12:11:49.004Z,35.74
2018-07-09T12:14:18.326Z,36.09
2018-07-09T12:16:47.639Z,36.10
2018-07-09T12:19:17.036Z,34.69
2018-07-09T12:21:46.403Z,33.90
2018-07-09T12:24:15.682Z,34.00
2018-07-09T12:26:45.075Z,34.79
2018-07-09T12:29:14.511Z,34.60
2018-07-09T12:31:43.700Z,34.91
2018-07-09T12:34:13.084Z,33.55
2018-07-09T12:36:42.371Z,33.05
2018-07-09T12:39:11.684Z,32.98
2018-07-09T12:41:41.047Z,33.71
2018-07-09T12:44:10.328Z,34.21
2018-07-09T12:46:39.723Z,35.58
2018-07-09T12:49:09.129Z,35.58
2018-07-09T12:51:38.565Z,36.75
2018-07-09T12:54:07.838Z,35.95
2018-07-09T12:56:37.751Z,35.71
2018-07-09T12:59:07.227Z,35.57
2018-07-09T13:01:36.756Z,34.73
2018-07-09T13:04:06.075Z,35.57
2018-07-09T13:06:35.371Z,36.00
2018-07-09T13:09:05.573Z,35.56
2018-07-09T13:11:34.931Z,36.49
2018-07-09T13:14:04.337Z,36.84
2018-07-09T13:16:33.705Z,37.63
2018-07-09T13:19:03.477Z,37.84
2018-07-09T13:21:32.792Z,38.20
2018-07-09T13:24:02.396Z,38.29
2018-07-09T13:26:31.946Z,38.80
2018-07-09T13:29:01.365Z,39.45
2018-07-09T13:31:30.671Z,38.53
2018-07-09T13:34:00.056Z,39.78
2018-07-09T13:36:29.374Z,41.01
2018-07-09T13:38:58.959Z,40.60
2018-07-09T13:41:28.814Z,40.29
2018-07-09T13:43:58.098Z,38.86
2018-07-09T13:46:27.536Z,38.75
2018-07-09T13:48:56.638Z,39.00
2018-07-09T13:51:25.974Z,38.84
2018-07-09T13:53:55.330Z,38.45
2018-07-09T13:56:24.645Z,38.89
2018-07-09T13:58:54.296Z,41.91
2018-07-09T14:01:23.603Z,42.36
2018-07-09T14:03:52.994Z,41.66
2018-07-09T14:06:22.290Z,41.29
2018-07-09T14:08:51.672Z,41.49
2018-07-09T14:11:21.045Z,40.38
2018-07-09T14:13:50.403Z,40.40
2018-07-09T14:16:19.762Z,40.14
2018-07-09T14:18:49.287Z,39.67
2018-07-09T14:21:18.683Z,39.71
2018-07-09T14:23:47.964Z,40.01
2018-07-09T14:26:17.848Z,39.34
2018-07-09T14:28:47.151Z,39.19
2018-07-09T14:31:16.445Z,39.66
2018-07-09T14:33:45.794Z,39.80
2018-07-09T14:36:15.115Z,39.78
2018-07-09T14:38:44.456Z,40.41
2018-07-09T14:41:13.831Z,40.84
2018-07-09T14:43:43.200Z,41.42
2018-07-09T14:46:12.697Z,41.12
2018-07-09T14:48:42.477Z,41.75
2018-07-09T14:51:11.977Z,42.40
2018-07-09T14:53:41.341Z,42.92
2018-07-09T14:56:10.641Z,41.46
2018-07-09T14:58:39.941Z,41.89
2018-07-09T15:01:09.271Z,41.84
2018-07-09T15:03:38.625Z,40.13
2018-07-09T15:06:08.289Z,40.81
2018-07-09T15:08:37.621Z,41.28
2018-07-09T15:11:08.010Z,40.48
2018-07-09T15:13:37.352Z,41.07
2018-07-09T15:16:06.707Z,40.56
2018-07-09T15:18:36.074Z,39.67
2018-07-09T15:21:05.463Z,39.08
2018-07-09T15:23:34.739Z,38.96
2018-07-09T15:26:04.069Z,39.64
2018-07-09T15:28:33.370Z,40.19
2018-07-09T15:31:02.778Z,39.23
2018-07-09T15:33:32.918Z,40.34
2018-07-09T15:36:03.369Z,41.53
2018-07-09T15:38:32.582Z,41.52
2018-07-09T15:41:02.018Z,40.79
2018-07-09T15:44:04.854Z,41.16
2018-07-09T15:46:34.050Z,40.86
2018-07-09T15:49:03.363Z,41.32
2018-07-09T15:51:32.650Z,41.60
2018-07-09T15:54:02.711Z,42.32
2018-07-09T15:56:32.067Z,41.40
2018-07-09T15:59:01.627Z,42.70
2018-07-09T16:01:31.315Z,43.59
2018-07-09T16:04:00.688Z,44.08
2018-07-09T16:06:30.068Z,44.23
2018-07-09T16:08:59.627Z,44.00
2018-07-09T16:11:29.159Z,42.98
2018-07-09T16:13:58.502Z,43.33
2018-07-09T16:16:28.314Z,42.75
2018-07-09T16:18:57.639Z,43.59
2018-07-09T16:21:26.969Z,43.29
2018-07-09T16:23:56.346Z,44.77
2018-07-09T16:26:25.684Z,44.27
2018-07-09T16:28:55.123Z,44.38
2018-07-09T16:31:24.464Z,44.02
2018-07-09T16:33:53.776Z,45.04
2018-07-09T16:36:23.282Z,45.60
2018-07-09T16:38:52.971Z,45.35
2018-07-09T16:41:22.339Z,45.14
2018-07-09T16:43:51.626Z,44.04
2018-07-09T16:46:20.991Z,44.58
2018-07-09T16:48:50.376Z,44.12
2018-07-09T16:51:19.663Z,44.27
2018-07-09T16:53:49.053Z,44.36
2018-07-09T16:56:18.535Z,44.23
2018-07-09T16:58:47.959Z,43.96
2018-07-09T17:01:17.557Z,45.04
2018-07-09T17:03:46.956Z,45.07
2018-07-09T17:06:16.352Z,45.51
2018-07-09T17:08:45.713Z,45.49
2018-07-09T17:11:15.050Z,45.17
2018-07-09T17:13:44.479Z,45.45
2018-07-09T17:16:13.866Z,45.57
2018-07-09T17:18:43.191Z,45.01
2018-07-09T17:21:12.488Z,45.55
2018-07-09T17:23:42.614Z,45.02
2018-07-09T17:26:12.202Z,46.04
2018-07-09T17:28:41.798Z,45.66
2018-07-09T17:31:11.181Z,45.13
2018-07-09T17:33:40.524Z,45.55
2018-07-09T17:36:10.048Z,45.01
2018-07-09T17:38:39.536Z,44.96
2018-07-09T17:41:09.251Z,46.31
2018-07-09T17:43:38.594Z,46.54
2018-07-09T17:46:08.136Z,47.77
2018-07-09T17:48:37.520Z,48.90
2018-07-09T17:51:06.923Z,49.63
2018-07-09T17:53:36.275Z,48.28
2018-07-09T17:56:05.708Z,48.79
2018-07-09T17:58:35.160Z,48.78
2018-07-09T18:01:04.531Z,49.15
2018-07-09T18:03:33.950Z,48.94
2018-07-09T18:06:03.324Z,49.37
2018-07-09T18:08:32.783Z,48.87
2018-07-09T18:11:02.175Z,48.99
2018-07-09T18:13:31.581Z,49.67
2018-07-09T18:16:00.918Z,49.10
2018-07-09T18:18:30.346Z,48.55
2018-07-09T18:20:59.973Z,49.69
2018-07-09T18:23:29.332Z,49.87
2018-07-09T18:25:58.710Z,49.27
2018-07-09T18:28:28.111Z,50.71
2018-07-09T18:30:58.328Z,50.00
2018-07-09T18:33:27.728Z,50.29
2018-07-09T18:35:57.064Z,49.62
2018-07-09T18:38:26.421Z,49.91
2018-07-09T18:40:55.781Z,50.71
2018-07-09T18:43:25.115Z,50.23
2018-07-09T18:45:54.518Z,49.73
2018-07-09T18:48:23.825Z,49.87
2018-07-09T18:50:53.131Z,49.39
2018-07-09T18:53:22.625Z,50.09
2018-07-09T18:55:52.008Z,49.75
2018-07-09T18:58:22.385Z,49.35
2018-07-09T19:00:51.851Z,49.47
2018-07-09T19:03:21.206Z,49.87
2018-07-09T19:06:07.645Z,50.15
2018-07-09T19:08:37.959Z,50.39
2018-07-09T19:11:07.578Z,50.40
2018-07-09T19:13:37.577Z,50.31
2018-07-09T19:16:07.326Z,50.69
2018-07-09T19:18:54.159Z,51.59
2018-07-09T19:21:41.927Z,51.67
2018-07-09T19:24:11.336Z,51.94
2018-07-09T19:26:40.099Z,51.37
2018-07-09T19:29:07.874Z,51.38
2018-07-09T19:31:36.003Z,50.34
2018-07-09T19:34:03.888Z,50.71
2018-07-09T19:36:31.735Z,51.16
2018-07-09T19:38:59.497Z,51.43
2018-07-09T19:41:27.263Z,51.99
2018-07-09T19:43:55.078Z,51.43
2018-07-09T19:46:22.914Z,52.33
2018-07-09T19:48:50.684Z,52.19
2018-07-09T19:51:18.835Z,51.66
2018-07-09T19:53:46.880Z,52.09
2018-07-09T19:56:14.688Z,52.18
2018-07-09T19:58:42.570Z,52.40
2018-07-09T20:01:10.463Z,52.61
2018-07-09T20:03:38.292Z,52.92
2018-07-09T20:06:06.095Z,52.24
2018-07-09T20:08:39.149Z,52.34
2018-07-09T20:13:17.738Z,52.52
2018-07-09T20:15:51.850Z,52.34
2018-07-09T20:18:19.727Z,53.98
2018-07-09T20:20:47.547Z,53.02
2018-07-09T20:23:15.487Z,53.28
2018-07-09T20:25:43.332Z,53.60
2018-07-09T20:28:11.113Z,53.03
2018-07-09T20:30:38.988Z,52.38
2018-07-09T20:33:06.796Z,52.69
2018-07-09T20:35:34.597Z,53.02
2018-07-09T20:38:02.477Z,53.04
2018-07-09T20:40:30.365Z,53.52
2018-07-09T20:42:58.152Z,53.96
2018-07-09T20:45:25.941Z,54.26
2018-07-09T20:47:53.761Z,55.36
2018-07-09T20:50:21.522Z,55.02
2018-07-09T20:52:49.333Z,55.51
2018-07-09T20:55:17.188Z,55.55
2018-07-09T20:57:44.960Z,55.12
2018-07-09T21:00:12.784Z,55.56
2018-07-09T21:02:40.526Z,54.87
2018-07-09T21:05:08.609Z,55.68
2018-07-09T21:07:36.496Z,55.48
2018-07-09T21:10:04.296Z,55.69
2018-07-09T21:12:32.063Z,56.31
2018-07-09T21:15:00.043Z,55.70
2018-07-09T21:17:27.753Z,56.14
2018-07-09T21:19:55.552Z,55.67
2018-07-09T21:22:23.481Z,55.13
2018-07-09T21:24:51.257Z,54.61
2018-07-09T21:27:19.081Z,55.49
2018-07-09T21:29:46.918Z,54.93
2018-07-09T21:32:14.881Z,55.19
2018-07-09T21:34:42.740Z,55.12
2018-07-09T21:37:10.541Z,55.46
2018-07-09T21:39:38.338Z,55.90
2018-07-09T21:42:06.095Z,56.45
2018-07-09T21:44:33.946Z,56.11
2018-07-09T21:47:01.855Z,56.81
2018-07-09T21:49:30.008Z,55.91
2018-07-09T21:51:57.996Z,56.18
2018-07-09T21:54:26.098Z,56.92
2018-07-09T21:56:53.954Z,57.65
2018-07-09T21:59:21.855Z,61.29
2018-07-09T22:01:49.669Z,61.66
2018-07-09T22:04:17.593Z,62.27
2018-07-09T22:06:45.776Z,63.20
2018-07-09T22:09:13.649Z,62.43
2018-07-09T22:11:41.462Z,62.61
2018-07-09T22:14:09.334Z,62.22
2018-07-09T22:16:37.162Z,60.29
2018-07-09T22:19:05.171Z,60.68
2018-07-09T22:21:32.997Z,60.29
2018-07-09T22:24:01.063Z,59.66
2018-07-09T22:26:28.882Z,59.98
2018-07-09T22:28:57.058Z,59.79
2018-07-09T22:31:26.393Z,59.32
2018-07-09T22:33:55.857Z,59.38
2018-07-09T22:36:25.252Z,59.38
2018-07-09T22:38:54.717Z,59.04
2018-07-09T22:41:24.200Z,58.97
2018-07-09T22:44:10.619Z,59.51
2018-07-09T22:46:39.906Z,58.39
2018-07-09T22:49:09.301Z,58.32
2018-07-09T22:51:38.931Z,57.93
2018-07-09T22:54:08.531Z,59.73
2018-07-09T22:56:37.965Z,60.11
2018-07-09T22:59:07.459Z,59.77
2018-07-09T23:01:37.103Z,59.14
2018-07-09T23:04:06.433Z,58.92
2018-07-09T23:06:35.952Z,58.43
2018-07-09T23:10:23.384Z,58.84
2018-07-09T23:13:24.489Z,60.58
2018-07-09T23:17:11.039Z,59.64
2018-07-09T23:21:02.632Z,60.53
2018-07-09T23:23:30.647Z,61.89
2018-07-09T23:25:58.486Z,61.80
2018-07-09T23:28:26.699Z,61.72
2018-07-09T23:30:54.747Z,61.88
2018-07-09T23:33:22.543Z,62.61
2018-07-09T23:35:50.533Z,62.63
2018-07-09T23:38:18.471Z,63.05
2018-07-09T23:40:46.430Z,62.60
2018-07-09T23:43:14.374Z,63.15
2018-07-09T23:45:42.248Z,62.63
2018-07-09T23:48:10.171Z,61.98
2018-07-09T23:50:38.591Z,61.50
2018-07-09T23:53:06.402Z,61.30
2018-07-09T23:55:37.334Z,61.76
